Time;durP1;ratioP1;P1;durP2;ratioP2;P2;SDS_P1;SDS_P2;PMS_P1;PMS_P2;Temp;Humidity;BMP_temperature;BMP_pressure;BME280_temperature;BME280_humidity;BME280_pressure;Samples;Min_cycle;Max_cycle;Signal;HPM_P1;HPM_P2
2022/05/07 00:02:17;;;;;;;6.27;3.23;;;;;;;11.27;63.38;99711.78;5045442;28;20199;-74
2022/05/07 00:04:44;;;;;;;6.00;3.20;;;;;;;11.25;63.27;99713.59;5046033;28;20230;-72
2022/05/07 00:07:12;;;;;;;6.63;3.33;;;;;;;11.17;63.56;99720.97;5046005;28;20234;-74
2022/05/07 00:09:39;;;;;;;5.30;3.10;;;;;;;10.95;64.55;99718.97;5045851;28;20196;-72
2022/05/07 00:12:07;;;;;;;7.50;3.23;;;;;;;10.81;64.55;99714.72;5045954;28;20223;-74
2022/05/07 00:14:35;;;;;;;6.03;3.30;;;;;;;10.75;65.16;99715.09;5045855;28;20199;-72
2022/05/07 00:19:47;;;;;;;4.93;3.13;;;;;;;10.53;65.60;99708.78;5045904;28;20864;-72
2022/05/07 00:22:15;;;;;;;4.40;2.90;;;;;;;10.71;64.85;99716.22;5045901;28;20239;-74
2022/05/07 00:24:42;;;;;;;6.33;3.43;;;;;;;10.75;65.02;99707.44;5045420;28;20864;-72
2022/05/07 00:27:09;;;;;;;6.07;3.00;;;;;;;10.58;65.68;99704.19;5045685;28;20230;-74
2022/05/07 00:29:36;;;;;;;6.27;3.33;;;;;;;10.46;66.56;99715.19;5045699;28;20222;-72
2022/05/07 00:32:03;;;;;;;4.33;3.20;;;;;;;10.41;67.08;99712.94;5045643;28;20254;-72
2022/05/07 00:34:30;;;;;;;5.87;3.10;;;;;;;10.23;67.59;99715.75;5045520;28;20203;-75
2022/05/07 00:36:57;;;;;;;5.37;3.30;;;;;;;10.25;67.81;99716.47;5045439;28;20227;-75
2022/05/07 00:39:25;;;;;;;5.80;3.37;;;;;;;10.09;67.83;99717.38;5045560;28;20199;-75
2022/05/07 00:41:53;;;;;;;6.17;3.10;;;;;;;10.07;67.73;99715.84;5045458;28;20219;-74
2022/05/07 00:44:22;;;;;;;5.57;3.17;;;;;;;10.17;67.14;99717.75;5045262;28;20210;-72
2022/05/07 00:46:50;;;;;;;6.87;3.43;;;;;;;10.18;67.10;99716.00;5045347;28;20309;-74
2022/05/07 00:49:19;;;;;;;5.73;3.13;;;;;;;10.28;66.40;99721.44;5045327;28;20242;-74
2022/05/07 00:51:45;;;;;;;5.57;2.93;;;;;;;10.31;66.12;99716.94;5045238;28;20307;-74
2022/05/07 00:54:12;;;;;;;6.00;3.30;;;;;;;10.36;65.58;99719.22;5045065;28;20207;-75
2022/05/07 00:56:40;;;;;;;10.03;3.20;;;;;;;10.42;65.91;99713.75;5045326;28;20590;-74
2022/05/07 00:59:07;;;;;;;4.83;3.00;;;;;;;10.38;66.29;99713.13;5045409;28;20630;-72
2022/05/07 01:01:34;;;;;;;5.50;2.97;;;;;;;10.38;66.24;99712.28;5045119;28;20223;-72
2022/05/07 01:04:01;;;;;;;5.63;3.50;;;;;;;10.22;66.95;99712.38;5045254;28;20541;-72
2022/05/07 01:06:30;;;;;;;3.93;3.00;;;;;;;10.03;67.63;99710.09;5044709;28;20238;-72
2022/05/07 01:08:57;;;;;;;6.63;3.13;;;;;;;10.12;67.72;99712.13;5045328;28;20207;-72
2022/05/07 01:11:26;;;;;;;6.30;3.37;;;;;;;10.07;68.07;99719.22;5044989;28;20229;-72
2022/05/07 01:13:54;;;;;;;6.87;3.37;;;;;;;10.00;68.63;99712.81;5045735;28;20618;-72
2022/05/07 01:16:21;;;;;;;6.00;3.20;;;;;;;9.89;68.33;99712.63;5048650;28;20219;-75
2022/05/07 01:18:48;;;;;;;5.37;3.40;;;;;;;9.72;69.46;99714.47;5048575;28;20214;-74
2022/05/07 01:21:17;;;;;;;8.43;3.53;;;;;;;9.72;69.29;99714.47;5048601;28;20223;-72
2022/05/07 01:23:45;;;;;;;6.97;3.30;;;;;;;9.67;69.47;99713.91;5048361;28;20195;-72
2022/05/07 01:26:13;;;;;;;4.43;3.33;;;;;;;9.61;69.71;99713.47;5048170;28;20234;-75
2022/05/07 01:28:40;;;;;;;4.43;3.30;;;;;;;9.49;70.74;99717.53;5048048;28;20202;-72
2022/05/07 01:31:07;;;;;;;7.97;3.30;;;;;;;9.56;69.83;99720.56;5048277;28;20250;-74
2022/05/07 01:33:35;;;;;;;7.93;3.70;;;;;;;9.55;69.91;99716.38;5048257;28;20202;-74
2022/05/07 01:36:02;;;;;;;5.50;3.30;;;;;;;9.51;69.51;99720.81;5048278;27;20234;-72
2022/05/07 01:38:31;;;;;;;9.90;3.80;;;;;;;9.50;69.75;99714.06;5048231;28;20290;-74
2022/05/07 01:40:59;;;;;;;5.93;3.20;;;;;;;9.52;69.33;99719.91;5048465;28;20542;-72
2022/05/07 01:43:27;;;;;;;8.10;3.40;;;;;;;9.36;70.37;99721.69;5048221;28;20206;-72
2022/05/07 01:45:55;;;;;;;4.97;3.30;;;;;;;9.35;70.19;99717.50;5048083;28;20239;-72
2022/05/07 01:48:21;;;;;;;7.63;4.07;;;;;;;9.33;70.66;99716.75;5048052;28;20290;-74
2022/05/07 01:50:47;;;;;;;7.77;3.60;;;;;;;9.36;70.41;99708.94;5047996;28;20270;-75
2022/05/07 01:53:15;;;;;;;5.83;3.60;;;;;;;9.28;70.36;99712.75;5048076;27;21004;-72
2022/05/07 01:55:44;;;;;;;6.17;3.53;;;;;;;9.39;69.89;99704.47;5047693;28;20306;-74
2022/05/07 01:58:12;;;;;;;6.40;3.20;;;;;;;9.30;70.22;99708.38;5047878;28;20295;-72
2022/05/07 02:00:40;;;;;;;6.60;3.27;;;;;;;9.38;70.45;99700.28;5047768;28;20281;-74
2022/05/07 02:03:08;;;;;;;4.93;3.27;;;;;;;9.44;69.88;99694.00;5047957;28;20663;-74
2022/05/07 02:05:35;;;;;;;7.87;3.57;;;;;;;9.53;69.31;99696.84;5047547;28;20243;-72
2022/05/07 02:08:03;;;;;;;7.50;3.50;;;;;;;9.57;69.26;99692.41;5047746;28;20203;-72
2022/05/07 02:10:29;;;;;;;7.93;3.77;;;;;;;9.54;68.97;99700.25;5047041;28;20306;-74
2022/05/07 02:13:01;;;;;;;6.33;3.87;;;;;;;9.60;68.52;99699.03;5047624;28;20213;-75
2022/05/07 02:15:28;;;;;;;4.53;3.03;;;;;;;9.66;67.99;99699.50;5047561;28;20246;-72
2022/05/07 02:17:56;;;;;;;7.87;3.80;;;;;;;9.72;68.49;99694.03;5047560;28;20742;-74
2022/05/07 02:20:22;;;;;;;4.33;3.30;;;;;;;9.66;68.33;99699.50;5047547;28;20280;-75
2022/05/07 02:22:53;;;;;;;6.70;3.50;;;;;;;9.64;68.31;99695.41;5047420;28;20207;-75
2022/05/07 02:25:20;;;;;;;8.87;3.57;;;;;;;9.63;68.59;99694.59;5046907;28;20247;-72
2022/05/07 02:27:47;;;;;;;5.97;3.50;;;;;;;9.65;68.19;99697.03;5047379;28;20195;-74
2022/05/07 02:30:15;;;;;;;8.53;3.40;;;;;;;9.65;68.16;99697.03;5047465;28;20223;-73
2022/05/07 02:32:42;;;;;;;8.70;3.47;;;;;;;9.66;68.28;99699.50;5047298;28;20200;-72
2022/05/07 02:35:09;;;;;;;5.50;3.57;;;;;;;9.79;67.49;99706.44;5047025;28;20709;-75
2022/05/07 02:37:37;;;;;;;4.90;3.03;;;;;;;9.72;67.52;99694.03;5047395;28;20204;-72
2022/05/07 02:40:05;;;;;;;9.13;3.43;;;;;;;9.77;67.42;99700.59;5047214;28;20227;-72
2022/05/07 02:42:33;;;;;;;6.47;3.30;;;;;;;9.81;67.48;99699.53;5047129;28;20271;-75
2022/05/07 02:45:01;;;;;;;6.90;3.40;;;;;;;9.70;68.04;99703.53;5047053;27;20212;-72
2022/05/07 02:47:29;;;;;;;6.30;3.97;;;;;;;9.73;67.56;99693.13;5047249;28;20211;-72
2022/05/07 02:49:56;;;;;;;6.27;3.50;;;;;;;9.72;67.80;99698.34;5046986;28;20199;-72
2022/05/07 02:52:23;;;;;;;7.33;3.60;;;;;;;9.88;67.20;99708.44;5047149;28;20268;-75
2022/05/07 02:54:50;;;;;;;7.13;3.40;;;;;;;9.80;67.11;99705.53;5046971;28;20287;-72
2022/05/07 02:57:16;;;;;;;6.30;3.57;;;;;;;9.96;67.05;99708.81;5046924;28;20206;-72
2022/05/07 02:59:43;;;;;;;7.90;3.83;;;;;;;9.86;67.96;99707.72;5046817;28;20214;-72
2022/05/07 03:02:10;;;;;;;5.17;3.47;;;;;;;9.67;68.47;99711.34;5046660;28;20625;-75
2022/05/07 03:04:38;;;;;;;7.53;3.70;;;;;;;9.57;69.28;99715.38;5046798;28;20256;-72
2022/05/07 03:07:05;;;;;;;5.73;3.57;;;;;;;9.45;69.55;99716.06;5046732;28;20253;-75
2022/05/07 03:09:32;;;;;;;8.43;3.87;;;;;;;9.32;70.02;99720.25;5046928;28;20210;-72
2022/05/07 03:11:59;;;;;;;8.23;4.53;;;;;;;9.19;70.44;99720.94;5046657;28;20227;-72
2022/05/07 03:14:26;;;;;;;6.80;3.83;;;;;;;9.15;71.04;99711.78;5046608;28;20723;-74
2022/05/07 03:16:52;;;;;;;4.70;3.30;;;;;;;9.16;70.81;99716.00;5046844;27;20665;-72
2022/05/07 03:19:20;;;;;;;6.63;4.00;;;;;;;8.95;71.85;99712.09;5046633;28;20211;-72
2022/05/07 03:21:48;;;;;;;6.20;3.80;;;;;;;8.87;72.06;99715.06;5046484;28;20261;-74
2022/05/07 03:24:15;;;;;;;6.77;4.20;;;;;;;9.06;71.75;99710.59;5046454;28;20214;-75
2022/05/07 03:26:42;;;;;;;6.90;3.87;;;;;;;9.03;71.71;99717.59;5046319;28;20246;-72
2022/05/07 03:29:09;;;;;;;6.63;3.90;;;;;;;9.15;71.86;99716.91;5046486;28;20214;-72
2022/05/07 03:31:37;;;;;;;8.00;3.80;;;;;;;9.28;71.54;99729.81;5046382;28;20223;-74
2022/05/07 03:34:04;;;;;;;11.53;3.90;;;;;;;9.30;71.64;99723.69;5046188;28;20647;-74
2022/05/07 03:36:30;;;;;;;7.13;3.70;;;;;;;9.29;71.74;99722.03;5045274;28;20276;-75
2022/05/07 03:38:58;;;;;;;9.53;3.80;;;;;;;9.25;72.03;99715.50;5046202;28;20331;-72
2022/05/07 03:41:25;;;;;;;6.47;3.97;;;;;;;9.21;71.97;99721.66;5046519;28;20223;-74
2022/05/07 03:43:52;;;;;;;8.33;4.07;;;;;;;9.29;71.93;99722.03;5046104;28;20195;-72
2022/05/07 03:46:21;;;;;;;6.20;4.00;;;;;;;9.37;72.41;99724.16;5046190;28;20722;-72
2022/05/07 03:48:47;;;;;;;8.10;4.03;;;;;;;9.49;71.73;99717.53;5045992;28;20203;-72
2022/05/07 03:51:14;;;;;;;7.87;4.50;;;;;;;9.61;72.03;99716.81;5046320;28;20219;-74
2022/05/07 03:53:40;;;;;;;9.60;3.97;;;;;;;9.66;72.11;99721.69;5045901;28;20292;-72
2022/05/07 03:56:09;;;;;;;8.37;4.47;;;;;;;9.66;72.37;99722.50;5046058;28;20227;-74
2022/05/07 03:58:37;;;;;;;7.73;4.00;;;;;;;9.69;72.58;99724.06;5045889;28;20598;-75
2022/05/07 04:01:04;;;;;;;8.57;4.20;;;;;;;9.72;72.84;99729.78;5046021;28;20226;-74
2022/05/07 04:03:32;;;;;;;6.87;4.30;;;;;;;9.87;72.49;99727.25;5045942;28;20581;-72
2022/05/07 04:05:59;;;;;;;9.33;4.10;;;;;;;9.91;72.02;99733.81;5045867;28;20828;-72
2022/05/07 04:08:26;;;;;;;6.93;4.33;;;;;;;10.00;72.58;99728.16;5045872;28;20196;-72
2022/05/07 04:10:53;;;;;;;7.33;4.30;;;;;;;10.07;71.98;99733.75;5045827;28;20654;-72
2022/05/07 04:13:21;;;;;;;7.33;4.30;;;;;;;10.18;71.92;99732.19;5045657;28;20218;-72
2022/05/07 04:15:48;;;;;;;8.90;4.60;;;;;;;10.30;72.30;99740.06;5045727;28;20713;-74
2022/05/07 04:18:15;;;;;;;7.30;4.20;;;;;;;10.33;72.90;99742.44;5045830;28;20200;-75
2022/05/07 04:20:41;;;;;;;16.70;7.13;;;;;;;10.47;72.76;99747.53;5045344;28;20255;-75
2022/05/07 04:23:08;;;;;;;6.73;4.23;;;;;;;10.73;74.21;99752.75;5045757;28;20211;-75
2022/05/07 04:25:35;;;;;;;8.60;4.20;;;;;;;10.88;73.23;99756.91;5045227;28;20729;-74
2022/05/07 04:28:02;;;;;;;6.90;4.40;;;;;;;11.06;72.92;99745.50;5045493;28;20203;-72
2022/05/07 04:30:30;;;;;;;8.37;5.33;;;;;;;11.19;73.15;99749.84;5045264;28;20226;-72
2022/05/07 04:32:57;;;;;;;12.77;7.40;;;;;;;11.33;73.17;99752.34;5045459;28;20203;-72
2022/05/07 04:35:24;;;;;;;18.77;10.57;;;;;;;11.47;72.42;99754.00;5045467;28;20219;-73
2022/05/07 04:37:51;;;;;;;11.97;4.83;;;;;;;11.61;72.86;99755.69;5045530;28;20214;-75
2022/05/07 04:40:18;;;;;;;11.27;7.50;;;;;;;11.65;74.34;99757.91;5045521;28;20222;-75
2022/05/07 04:42:44;;;;;;;31.13;20.20;;;;;;;11.92;74.40;99762.97;5045415;28;20195;-72
2022/05/07 04:45:13;;;;;;;15.77;9.10;;;;;;;12.09;74.44;99755.91;5045138;28;20224;-74
2022/05/07 04:47:42;;;;;;;24.67;14.80;;;;;;;12.32;73.60;99752.59;5045969;28;20227;-73
2022/05/07 04:50:09;;;;;;;8.17;4.63;;;;;;;12.35;73.36;99754.13;5048757;28;20215;-74
2022/05/07 04:52:38;;;;;;;7.70;5.00;;;;;;;12.31;72.49;99761.22;5048876;28;20203;-74
2022/05/07 04:55:06;;;;;;;7.60;4.73;;;;;;;12.30;73.88;99759.56;5048879;28;20195;-72
2022/05/07 04:57:33;;;;;;;9.03;5.63;;;;;;;12.34;73.53;99761.00;5048949;28;20200;-72
2022/05/07 05:00:00;;;;;;;12.00;7.33;;;;;;;12.36;73.71;99766.84;5048636;28;20199;-75
2022/05/07 05:02:27;;;;;;;17.47;10.43;;;;;;;12.30;74.47;99774.94;5048827;28;20239;-72
2022/05/07 05:04:55;;;;;;;19.40;12.43;;;;;;;12.29;75.21;99765.63;5048414;28;20733;-72
2022/05/07 05:07:22;;;;;;;14.33;8.83;;;;;;;12.33;74.45;99768.78;5048689;28;20239;-74
2022/05/07 05:09:49;;;;;;;69.53;42.13;;;;;;;12.40;74.97;99775.97;5048507;28;20222;-72
2022/05/07 05:12:17;;;;;;;14.37;7.90;;;;;;;12.43;75.99;99778.31;5048565;28;20692;-74
2022/05/07 05:15:03;;;;;;;9.73;5.17;;;;;;;12.42;75.41;99773.28;5048539;28;20227;-73
2022/05/07 05:17:31;;;;;;;8.63;5.60;;;;;;;12.46;77.07;99774.72;5048595;28;20283;-74
2022/05/07 05:19:59;;;;;;;9.40;5.10;;;;;;;12.56;75.61;99778.28;5048332;28;20245;-74
2022/05/07 05:22:26;;;;;;;9.40;6.20;;;;;;;12.72;76.23;99779.78;5048655;28;20583;-74
2022/05/07 05:24:53;;;;;;;11.73;6.53;;;;;;;12.89;76.73;99782.00;5048052;28;20673;-74
2022/05/07 05:27:20;;;;;;;176.40;73.47;;;;;;;12.96;76.57;99792.63;5048196;28;20238;-74
2022/05/07 05:29:47;;;;;;;66.60;34.63;;;;;;;12.98;76.65;99785.66;5048375;28;20199;-74
2022/05/07 05:32:17;;;;;;;60.53;36.30;;;;;;;13.02;75.99;99797.34;5048282;27;20211;-75
2022/05/07 05:34:45;;;;;;;76.03;39.33;;;;;;;13.02;76.00;99792.19;5048234;28;20298;-76
2022/05/07 05:37:14;;;;;;;313.70;123.37;;;;;;;13.00;74.60;99799.19;5048226;28;20203;-75
2022/05/07 05:39:41;;;;;;;146.97;70.83;;;;;;;12.99;74.33;99803.50;5047985;28;20299;-75
2022/05/07 05:42:09;;;;;;;36.37;20.43;;;;;;;12.97;74.12;99804.53;5048034;28;20625;-75
2022/05/07 05:44:38;;;;;;;53.33;29.57;;;;;;;12.90;73.16;99809.28;5048088;28;20626;-75
2022/05/07 05:47:06;;;;;;;44.67;22.20;;;;;;;12.89;73.36;99817.94;5046667;28;20231;-75
2022/05/07 05:49:34;;;;;;;17.23;9.90;;;;;;;12.96;72.87;99818.31;5048003;28;20203;-75
2022/05/07 05:52:01;;;;;;;16.60;10.37;;;;;;;12.87;72.56;99820.59;5047863;28;20224;-75
2022/05/07 05:54:30;;;;;;;156.03;78.70;;;;;;;12.95;72.01;99827.75;5047812;28;20211;-75
2022/05/07 05:56:57;;;;;;;190.40;86.07;;;;;;;13.00;72.38;99827.41;5047990;28;20235;-76
2022/05/07 05:59:24;;;;;;;66.37;38.03;;;;;;;13.05;71.88;99833.06;5046841;28;20693;-76
2022/05/07 06:01:52;;;;;;;17.43;9.07;;;;;;;13.13;73.00;99836.72;5047845;28;20223;-76
2022/05/07 06:04:18;;;;;;;12.50;6.60;;;;;;;13.20;73.07;99842.22;5047532;28;20200;-76
2022/05/07 06:06:45;;;;;;;321.97;135.07;;;;;;;13.56;70.76;99841.38;5047459;28;20246;-76
2022/05/07 06:09:12;;;;;;;14.20;7.97;;;;;;;14.08;66.56;99839.31;5047461;28;20195;-76
2022/05/07 06:11:40;;;;;;;20.00;8.53;;;;;;;14.41;65.71;99835.94;5047355;28;20238;-76
2022/05/07 06:14:07;;;;;;;116.97;52.10;;;;;;;14.77;64.29;99836.63;5047613;28;20899;-76
2022/05/07 06:16:36;;;;;;;34.13;18.33;;;;;;;15.15;62.62;99831.06;5047373;28;20629;-76
2022/05/07 06:19:03;;;;;;;10.27;5.50;;;;;;;15.46;62.97;99836.34;5047274;28;20199;-76
2022/05/07 06:21:31;;;;;;;13.67;9.53;;;;;;;15.43;59.04;99834.00;5047344;28;20778;-76
2022/05/07 06:27:28;;;;;;;31.80;19.10;;;;;;;15.73;61.13;99838.44;5047085;28;20207;-76
2022/05/07 06:29:31;;;;;;;29.37;14.90;;;;;;;15.62;59.71;99839.31;5047069;28;20212;-76
2022/05/07 06:31:57;;;;;;;14.93;8.00;;;;;;;15.65;60.98;99847.72;5047459;28;20222;-76
2022/05/07 06:34:24;;;;;;;8.30;5.73;;;;;;;15.37;61.13;99844.81;5047173;28;20207;-76
2022/05/07 06:36:52;;;;;;;12.10;5.60;;;;;;;15.21;63.91;99839.22;5031915;28;20220;-76
2022/05/07 06:39:20;;;;;;;7.73;5.10;;;;;;;15.16;64.24;99837.84;5027252;28;20194;-76
2022/05/07 06:41:50;;;;;;;7.83;5.37;;;;;;;15.01;64.45;99844.22;5026983;28;20217;-76
2022/05/07 06:44:17;;;;;;;11.50;5.57;;;;;;;15.36;67.07;99838.84;5027239;28;20239;-76
2022/05/07 06:46:46;;;;;;;8.83;5.70;;;;;;;15.94;64.56;99843.63;5027181;28;20246;-76
2022/05/07 06:49:14;;;;;;;14.17;6.00;;;;;;;16.29;61.96;99843.28;5026907;28;20221;-76
2022/05/07 06:51:44;;;;;;;9.83;6.37;;;;;;;16.81;60.41;99840.59;5027052;28;20299;-76
2022/05/07 06:54:10;;;;;;;12.53;6.40;;;;;;;16.85;59.80;99839.41;5027011;28;20203;-76
2022/05/07 06:56:37;;;;;;;13.07;6.40;;;;;;;17.31;59.67;99845.75;5026882;28;20224;-76
2022/05/07 06:59:05;;;;;;;10.53;6.77;;;;;;;17.27;56.12;99844.34;5027079;28;20200;-76
2022/05/07 07:01:32;;;;;;;11.60;6.90;;;;;;;17.39;58.06;99848.47;5027049;28;20223;-76
2022/05/07 07:03:59;;;;;;;9.53;7.43;;;;;;;17.59;59.55;99854.44;5026859;28;20713;-78
2022/05/07 07:06:26;;;;;;;11.20;7.10;;;;;;;17.30;60.62;99849.25;5026728;28;20311;-77
2022/05/07 07:08:53;;;;;;;9.30;6.23;;;;;;;17.15;58.86;99855.78;5026965;28;20586;-77
2022/05/07 07:11:21;;;;;;;11.33;5.77;;;;;;;16.14;58.76;99859.19;5026835;28;20277;-76
2022/05/07 07:13:49;;;;;;;10.67;6.13;;;;;;;16.32;60.48;99856.84;5026912;28;20207;-74
2022/05/07 07:16:18;;;;;;;10.17;6.10;;;;;;;16.39;61.54;99863.94;5026964;28;20236;-77
2022/05/07 07:18:45;;;;;;;13.63;6.57;;;;;;;16.83;59.86;99861.97;5026797;28;20208;-74
2022/05/07 07:21:12;;;;;;;10.43;6.43;;;;;;;17.20;57.21;99861.38;5026958;28;20246;-74
2022/05/07 07:23:39;;;;;;;10.57;5.40;;;;;;;17.64;55.22;99857.41;5025305;28;20575;-74
2022/05/07 07:26:06;;;;;;;9.47;6.00;;;;;;;17.63;55.72;99855.81;5026491;28;20232;-74
2022/05/07 07:28:33;;;;;;;8.57;5.43;;;;;;;17.18;56.50;99855.50;5026199;28;20755;-74
2022/05/07 07:30:59;;;;;;;9.67;5.70;;;;;;;17.43;56.57;99862.75;5026646;28;20226;-74
2022/05/07 07:33:28;;;;;;;12.03;5.90;;;;;;;17.56;53.85;99865.03;5026468;28;20653;-76
2022/05/07 07:35:54;;;;;;;9.50;6.03;;;;;;;17.32;56.95;99857.69;5027400;28;20236;-76
2022/05/07 07:38:21;;;;;;;9.07;5.73;;;;;;;17.49;55.98;99860.56;5026682;28;20211;-76
2022/05/07 07:40:50;;;;;;;10.73;5.70;;;;;;;17.99;55.36;99858.63;5026543;28;20250;-76
2022/05/07 07:43:17;;;;;;;9.83;5.20;;;;;;;18.20;54.45;99853.25;5026258;28;20674;-73
2022/05/07 07:48:33;;;;;;;12.23;5.40;;;;;;;18.10;55.57;99852.50;5026578;28;20231;-75
2022/05/07 07:50:59;;;;;;;7.27;5.17;;;;;;;18.51;52.37;99853.03;5025416;28;20315;-76
2022/05/07 07:53:26;;;;;;;10.47;5.97;;;;;;;18.76;52.63;99839.44;5024771;28;20652;-76
2022/05/07 07:55:53;;;;;;;8.67;5.27;;;;;;;18.81;48.93;99843.38;5026078;28;20224;-73
2022/05/07 07:58:20;;;;;;;71.20;10.17;;;;;;;18.76;49.89;99847.22;5025959;28;20225;-74
2022/05/07 08:00:47;;;;;;;12.27;5.83;;;;;;;19.12;52.87;99844.66;5026195;28;20223;-74
2022/05/07 08:03:16;;;;;;;15.33;5.87;;;;;;;19.39;48.88;99848.16;5026259;28;20689;-73
2022/05/07 08:05:45;;;;;;;12.40;5.67;;;;;;;19.59;48.90;99847.03;5025903;28;20255;-73
2022/05/07 08:13:53;;;;;;;9.00;5.40;;;;;;;20.05;49.02;99847.69;5049221;28;20207;-75
2022/05/07 08:16:20;;;;;;;7.13;5.03;;;;;;;20.42;46.15;99844.00;5025854;28;20330;-73
2022/05/07 08:18:49;;;;;;;7.83;4.93;;;;;;;20.26;44.10;99838.72;5025659;28;20585;-76
2022/05/07 08:21:18;;;;;;;9.40;5.30;;;;;;;20.27;43.96;99840.34;5025265;28;20228;-76
2022/05/07 08:23:45;;;;;;;8.03;5.00;;;;;;;19.90;43.04;99831.06;5032992;27;20706;-73
2022/05/07 08:26:12;;;;;;;11.85;5.40;;;;;;;19.15;46.09;99834.00;5073594;27;20434;-73
2022/05/07 08:28:40;;;;;;;7.87;5.30;;;;;;;18.85;43.79;99831.72;5101720;27;20725;-73
2022/05/07 08:31:07;;;;;;;9.93;5.27;;;;;;;18.84;45.99;99835.28;5093459;27;20620;-73
2022/05/07 08:33:35;;;;;;;9.47;4.90;;;;;;;19.41;45.50;99833.25;5094340;27;20664;-74
2022/05/07 08:36:03;;;;;;;9.37;5.10;;;;;;;19.84;44.84;99836.88;5101900;27;20224;-74
2022/05/07 08:38:31;;;;;;;7.13;4.63;;;;;;;20.12;43.52;99834.91;5095063;27;20202;-74
2022/05/07 08:41:00;;;;;;;7.33;4.90;;;;;;;20.67;43.24;99831.94;5091697;27;20222;-73
2022/05/07 08:43:27;;;;;;;9.20;5.13;;;;;;;20.71;42.71;99832.41;5099892;27;20204;-74
2022/05/07 08:45:53;;;;;;;8.30;5.00;;;;;;;21.11;40.39;99831.69;5098026;27;20639;-73
2022/05/07 08:48:20;;;;;;;6.27;4.60;;;;;;;20.56;40.33;99830.44;5090529;27;20232;-73
2022/05/07 08:50:49;;;;;;;8.63;5.23;;;;;;;20.08;41.54;99821.44;5086208;27;20219;-76
2022/05/07 08:53:16;;;;;;;9.13;5.20;;;;;;;20.81;43.64;99833.13;5085995;27;20203;-76
2022/05/07 08:55:44;;;;;;;6.93;4.87;;;;;;;20.61;40.03;99831.75;5101116;27;20304;-77
2022/05/07 08:58:11;;;;;;;7.87;4.47;;;;;;;20.23;40.86;99839.03;5095833;27;20199;-77
2022/05/07 09:00:39;;;;;;;20.10;5.53;;;;;;;20.09;41.20;99832.63;5090074;27;20256;-77
2022/05/07 09:03:06;;;;;;;13.13;4.50;;;;;;;19.98;39.81;99836.28;5070322;27;20199;-75
2022/05/07 09:05:35;;;;;;;9.40;4.80;;;;;;;19.78;39.53;99829.66;5043838;28;20589;-76
2022/05/07 09:08:03;;;;;;;7.37;4.70;;;;;;;19.79;40.73;99815.75;5043800;28;20230;-77
2022/05/07 09:10:33;;;;;;;11.23;5.30;;;;;;;19.53;40.81;99826.88;5043312;28;20234;-75
2022/05/07 09:13:10;;;;;;;7.27;4.43;;;;;;;19.71;41.16;99829.47;5044344;28;20218;-73
2022/05/07 09:15:37;;;;;;;10.07;4.80;;;;;;;19.34;40.80;99827.03;5044249;28;20231;-74
2022/05/07 09:18:13;;;;;;;7.50;4.63;;;;;;;19.20;41.55;99828.38;5044885;28;20202;-75
2022/05/07 09:20:40;;;;;;;8.63;4.80;;;;;;;19.38;42.41;99828.38;5044327;28;20331;-76
2022/05/07 09:23:07;;;;;;;10.97;4.80;;;;;;;19.30;40.92;99830.88;5044702;28;20196;-73
2022/05/07 09:25:34;;;;;;;8.67;4.77;;;;;;;19.12;42.18;99829.13;5044615;28;20232;-73
2022/05/07 09:28:02;;;;;;;8.10;4.47;;;;;;;18.92;42.67;99827.63;5044567;28;20668;-74
2022/05/07 09:30:30;;;;;;;16.97;5.30;;;;;;;19.09;43.54;99816.44;5043896;28;20614;-74
2022/05/07 09:32:57;;;;;;;12.27;5.00;;;;;;;18.75;44.00;99822.25;5045308;27;20226;-74
2022/05/07 09:38:12;;;;;;;10.30;5.03;;;;;;;18.71;43.72;99817.50;5048458;28;20204;-73
2022/05/07 09:40:40;;;;;;;13.53;5.60;;;;;;;18.96;44.03;99819.38;5048141;28;20242;-75
2022/05/07 09:43:10;;;;;;;8.00;5.30;;;;;;;19.26;44.40;99819.16;5047257;28;20202;-75
2022/05/07 09:45:38;;;;;;;19.40;6.00;;;;;;;19.26;42.80;99816.56;5047581;28;20302;-75
2022/05/07 09:48:06;;;;;;;8.47;4.50;;;;;;;19.48;42.19;99815.31;5047790;28;20240;-74
2022/05/07 09:50:45;;;;;;;7.97;4.63;;;;;;;19.82;47.05;99820.63;5048093;28;20647;-76
2022/05/07 09:58:45;;;;;;;12.77;5.70;;;;;;;21.40;42.72;99822.66;5047826;28;20236;-76
2022/05/07 10:01:29;;;;;;;8.53;5.00;;;;;;;21.66;40.06;99809.47;5047815;28;20224;-76
2022/05/07 10:04:06;;;;;;;8.60;4.80;;;;;;;22.12;38.67;99800.09;5047564;28;20208;-76
2022/05/07 10:07:02;;;;;;;11.00;5.60;;;;;;;22.38;39.58;99801.66;5047774;28;20288;-75
2022/05/07 10:09:41;;;;;;;9.07;5.57;;;;;;;23.13;37.51;99790.66;5055776;28;20233;-75
2022/05/07 10:12:10;;;;;;;8.43;4.60;;;;;;;22.74;35.85;99791.50;5047951;28;20709;-75
2022/05/07 10:14:38;;;;;;;6.13;4.20;;;;;;;22.67;34.47;99784.56;5047625;28;20202;-75
2022/05/07 10:17:11;;;;;;;8.23;4.07;;;;;;;22.62;35.20;99792.09;5047571;28;20224;-75
2022/05/07 10:19:39;;;;;;;7.60;4.03;;;;;;;22.14;35.47;99802.53;5047613;28;20207;-75
2022/05/07 10:22:21;;;;;;;11.27;4.37;;;;;;;22.59;33.95;99782.81;5047480;28;20258;-74
2022/05/07 10:24:50;;;;;;;9.40;4.60;;;;;;;22.92;34.11;99782.59;5046627;27;20225;-74
2022/05/07 10:27:22;;;;;;;7.70;4.33;;;;;;;22.66;33.53;99772.50;5047354;27;20662;-73
2022/05/07 10:29:51;;;;;;;9.80;4.40;;;;;;;22.62;32.91;99772.03;5047712;27;20210;-74
2022/05/07 10:32:19;;;;;;;8.00;4.40;;;;;;;22.11;33.87;99775.03;5047322;28;20232;-74
2022/05/07 10:34:53;;;;;;;9.20;5.53;;;;;;;21.79;34.72;99773.34;5056117;27;20204;-76
2022/05/07 10:37:20;;;;;;;6.57;4.07;;;;;;;21.84;34.33;99768.44;5150660;27;20665;-73
2022/05/07 10:39:52;;;;;;;8.33;4.00;;;;;;;21.82;34.59;99764.38;5151165;27;20231;-75
2022/05/07 10:42:21;;;;;;;5.97;4.13;;;;;;;22.11;36.71;99759.41;5150699;27;20477;-74
2022/05/07 10:44:50;;;;;;;7.27;3.77;;;;;;;22.35;35.72;99755.91;5050225;27;20697;-75
2022/05/07 10:47:20;;;;;;;8.40;4.50;;;;;;;22.63;36.69;99752.84;5046549;28;20200;-75
2022/05/07 10:49:54;;;;;;;10.47;4.40;;;;;;;23.31;36.58;99756.41;5047063;28;20242;-75
2022/05/07 10:52:32;;;;;;;7.43;4.30;;;;;;;23.53;35.71;99751.31;5047101;28;20447;-74
2022/05/07 10:55:08;;;;;;;6.13;3.93;;;;;;;23.53;34.66;99754.72;5046879;28;20635;-75
2022/05/07 10:57:41;;;;;;;9.00;4.30;;;;;;;23.66;34.20;99754.94;5047245;28;20665;-75
2022/05/07 11:00:18;;;;;;;6.97;3.80;;;;;;;23.77;33.68;99747.69;5046759;28;20246;-75
2022/05/07 11:02:47;;;;;;;7.78;3.55;;;;;;;23.08;34.34;99740.78;5046896;28;20596;-75
2022/05/07 11:05:15;;;;;;;5.50;3.40;;;;;;;22.95;35.40;99745.78;5046794;28;20223;-76
2022/05/07 11:07:42;;;;;;;12.20;4.20;;;;;;;23.32;33.88;99742.38;5092390;27;20212;-75
2022/05/07 11:10:11;;;;;;;4.93;3.63;;;;;;;23.41;32.20;99745.72;5048962;27;20230;-75
2022/05/07 11:12:39;;;;;;;8.10;4.00;;;;;;;23.47;32.33;99739.78;5046573;28;20215;-76
2022/05/07 11:15:07;;;;;;;12.37;5.40;;;;;;;23.46;33.33;99740.78;5046386;28;20264;-75
2022/05/07 11:17:40;;;;;;;9.15;4.38;;;;;;;23.72;34.07;99733.34;5046399;28;20206;-75
2022/05/07 11:20:08;;;;;;;7.73;4.00;;;;;;;24.01;32.45;99729.09;5046185;28;20254;-75
2022/05/07 11:22:39;;;;;;;12.57;3.83;;;;;;;23.89;32.68;99727.94;5045407;28;20206;-75
2022/05/07 11:25:07;;;;;;;10.68;4.63;;;;;;;23.69;34.25;99731.06;5050175;28;20318;-75
2022/05/07 11:27:34;;;;;;;8.10;4.18;;;;;;;23.49;33.09;99716.94;5049707;28;20673;-75
2022/05/07 11:30:04;;;;;;;19.00;5.82;;;;;;;23.15;33.49;99720.84;5048023;28;20234;-75
2022/05/07 11:32:40;;;;;;;9.70;3.97;;;;;;;23.57;33.46;99718.66;5053267;28;20215;-74
2022/05/07 11:35:08;;;;;;;10.38;4.95;;;;;;;23.60;32.37;99723.53;5054955;28;20203;-75
2022/05/07 11:37:40;;;;;;;8.40;4.30;;;;;;;23.23;34.37;99723.38;5052239;27;20594;-75
2022/05/07 11:40:09;;;;;;;10.32;4.40;;;;;;;23.10;36.14;99717.16;5063672;27;20276;-75
2022/05/07 11:42:37;;;;;;;6.82;4.10;;;;;;;23.15;34.31;99720.84;5045926;28;20302;-75
2022/05/07 11:47:58;;;;;;;5.03;3.63;;;;;;;23.42;32.80;99710.81;5045726;28;20202;-75
2022/05/07 11:50:26;;;;;;;8.57;4.27;;;;;;;23.45;33.73;99706.03;5046129;28;20249;-75
2022/05/07 11:52:54;;;;;;;5.00;3.67;;;;;;;23.16;33.93;99706.81;5045993;28;20213;-75
2022/05/07 11:55:29;;;;;;;9.53;4.90;;;;;;;23.02;32.60;99704.97;5045923;28;20268;-75
2022/05/07 11:57:56;;;;;;;9.23;4.67;;;;;;;23.27;35.29;99695.97;5045199;28;20291;-75
2022/05/07 12:00:25;;;;;;;11.67;3.77;;;;;;;23.41;33.14;99696.13;5046065;28;20313;-76
2022/05/07 12:02:54;;;;;;;9.87;4.93;;;;;;;23.24;32.76;99698.09;5046133;28;20767;-75